Bismarck, ND (58503)

4:12 PM CDT on August 29, 2015 (GMT -0500)
Rural North Bismarck, Harvest Grove Subdivsion | | Change Station
CLOSE
Current Station
Personal Weather Station
Location: Bismarck, ND
Elevation: 1900 ft
Nearby Weather Stations

Elev 1900 ft 46.90 °N, 100.78 °W | Updated 33 seconds ago

Partly Cloudy
Partly Cloudy
90.0 °F
Feels Like 90 °F
N
8.0
Wind Variable Wind from SSE
Gusts 13.0 mph

Today
High -- | Low -- °F
--% Chance of Precip.
Yesterday
High -- | Low -- °F
Precip. -- in
6:58 AM 8:28 PM
Full, 100% visible
Pressure 29.85 in
Visibility 4.0 miles
Clouds Mostly Cloudy 3200 ft
Mostly Cloudy 4300 ft
Heat Index 90 °F
Dew Point 60 °F
Humidity 37%
Rainfall 0.00 in
Snow Depth Not available.
UV 2.4 out of 12
Pollen 10.90 out of 12
Air Quality Not available.
Flu Activity Not available.
METAR KBIS 292052Z 14011KT 4SM HZ BKN032 BKN043 33/15 A2987 RMK AO2 SLP106 T03330150 58020
Pressure 29.85 in
Visibility 4.0 miles
Clouds Mostly Cloudy 3200 ft
Mostly Cloudy 4300 ft
Heat Index 90 °F
Dew Point 60 °F
Humidity 37%
Rainfall 0.00 in
Snow Depth Not available.
UV 2.4 out of 12
Pollen 10.90 out of 12
Air Quality Not available.
Flu Activity Not available.
METAR KBIS 292052Z 14011KT 4SM HZ BKN032 BKN043 33/15 A2987 RMK AO2 SLP106 T03330150 58020

10-Day Weather Forecast

×

Almanac

Astronomy

Aug. 29, 2015 Rise Set
Actual Time
Civil Twilight
Nautical Twilight
Astronomical Twilight
Moon
Length of Visible Light
Length of Day
Tomorrow will be .
, % of the Moon is Illuminated

Today's Extremes

State Highs State Lows

Community

WunderPhotos

Upload Photos

1,850,802 photos uploaded!

WunderBlogs® & News

Nearby

Air Quality

  Air Quality AQ Index Pollutant
Not available.

Snow Depth

Station Depth Elevation

Earthquake Activity

City Distance Mag. Time & Date
Minimum magnitude displayed is 2.5.

Coastal Water Temperatures

Place Temperature

Stations

Nearby Weather Stations

Station Location Temp. Windchill Dew Point Humidity Wind Precip. Elev Updated Type